sensor_id;sensor_type;location;lat;lon;timestamp;temperature;humidity
27900;DHT22;15243;50.726;7.080;2023-05-18T00:02:10;6.90;99.90
27900;DHT22;15243;50.726;7.080;2023-05-18T00:04:42;6.80;99.90
27900;DHT22;15243;50.726;7.080;2023-05-18T00:07:09;6.90;99.90
27900;DHT22;15243;50.726;7.080;2023-05-18T00:09:36;6.80;99.90
27900;DHT22;15243;50.726;7.080;2023-05-18T00:12:04;6.70;99.90
27900;DHT22;15243;50.726;7.080;2023-05-18T00:14:31;6.70;99.90
27900;DHT22;15243;50.726;7.080;2023-05-18T00:16:58;6.60;99.90
27900;DHT22;15243;50.726;7.080;2023-05-18T00:19:27;6.60;99.90
27900;DHT22;15243;50.726;7.080;2023-05-18T00:21:55;6.60;99.90
27900;DHT22;15243;50.726;7.080;2023-05-18T00:24:23;6.50;99.90
27900;DHT22;15243;50.726;7.080;2023-05-18T00:26:50;6.50;99.90
27900;DHT22;15243;50.726;7.080;2023-05-18T00:29:17;6.50;99.90
27900;DHT22;15243;50.726;7.080;2023-05-18T00:31:43;6.50;99.90
27900;DHT22;15243;50.726;7.080;2023-05-18T00:34:13;6.40;99.90
27900;DHT22;15243;50.726;7.080;2023-05-18T00:36:40;6.50;99.90
27900;DHT22;15243;50.726;7.080;2023-05-18T00:39:08;6.40;99.90
27900;DHT22;15243;50.726;7.080;2023-05-18T00:41:35;6.30;99.90
27900;DHT22;15243;50.726;7.080;2023-05-18T00:44:02;6.30;99.90
27900;DHT22;15243;50.726;7.080;2023-05-18T00:46:31;6.30;99.90
27900;DHT22;15243;50.726;7.080;2023-05-18T00:48:58;6.30;99.90
27900;DHT22;15243;50.726;7.080;2023-05-18T00:51:28;6.20;99.90
27900;DHT22;15243;50.726;7.080;2023-05-18T00:53:55;6.10;99.90
27900;DHT22;15243;50.726;7.080;2023-05-18T00:56:23;6.10;99.90
27900;DHT22;15243;50.726;7.080;2023-05-18T00:58:54;6.00;99.90
27900;DHT22;15243;50.726;7.080;2023-05-18T01:01:31;6.00;99.90
27900;DHT22;15243;50.726;7.080;2023-05-18T01:04:01;6.00;99.90
27900;DHT22;15243;50.726;7.080;2023-05-18T01:06:29;6.00;99.90
27900;DHT22;15243;50.726;7.080;2023-05-18T01:09:03;6.00;99.90
27900;DHT22;15243;50.726;7.080;2023-05-18T01:11:55;5.90;99.90
27900;DHT22;15243;50.726;7.080;2023-05-18T01:14:48;5.80;99.90
27900;DHT22;15243;50.726;7.080;2023-05-18T01:25:46;5.70;99.90
27900;DHT22;15243;50.726;7.080;2023-05-18T01:28:17;5.70;99.90
27900;DHT22;15243;50.726;7.080;2023-05-18T01:30:45;5.60;99.90
27900;DHT22;15243;50.726;7.080;2023-05-18T01:33:13;5.60;99.90
27900;DHT22;15243;50.726;7.080;2023-05-18T01:35:40;5.70;99.90
27900;DHT22;15243;50.726;7.080;2023-05-18T01:38:21;5.80;99.90
27900;DHT22;15243;50.726;7.080;2023-05-18T01:43:35;5.70;99.90
27900;DHT22;15243;50.726;7.080;2023-05-18T01:46:19;5.70;99.90
27900;DHT22;15243;50.726;7.080;2023-05-18T01:48:55;5.70;99.90
27900;DHT22;15243;50.726;7.080;2023-05-18T01:51:27;5.60;99.90
27900;DHT22;15243;50.726;7.080;2023-05-18T01:54:06;5.60;99.90
27900;DHT22;15243;50.726;7.080;2023-05-18T01:56:34;5.50;99.90
27900;DHT22;15243;50.726;7.080;2023-05-18T01:59:02;5.40;99.90
27900;DHT22;15243;50.726;7.080;2023-05-18T02:01:29;5.40;99.90
27900;DHT22;15243;50.726;7.080;2023-05-18T02:03:56;5.30;99.90
27900;DHT22;15243;50.726;7.080;2023-05-18T02:06:23;5.30;99.90
27900;DHT22;15243;50.726;7.080;2023-05-18T02:08:50;5.20;99.90
27900;DHT22;15243;50.726;7.080;2023-05-18T02:11:17;5.20;99.90
27900;DHT22;15243;50.726;7.080;2023-05-18T02:13:44;5.20;99.90
27900;DHT22;15243;50.726;7.080;2023-05-18T02:16:11;5.20;99.90
27900;DHT22;15243;50.726;7.080;2023-05-18T02:18:39;5.20;99.90
27900;DHT22;15243;50.726;7.080;2023-05-18T02:21:06;5.20;99.90
27900;DHT22;15243;50.726;7.080;2023-05-18T02:23:35;5.20;99.90
27900;DHT22;15243;50.726;7.080;2023-05-18T02:26:02;5.20;99.90
27900;DHT22;15243;50.726;7.080;2023-05-18T02:28:29;5.10;99.90
27900;DHT22;15243;50.726;7.080;2023-05-18T02:31:08;5.20;99.90
27900;DHT22;15243;50.726;7.080;2023-05-18T02:33:35;5.20;99.90
27900;DHT22;15243;50.726;7.080;2023-05-18T02:36:11;5.10;99.90
27900;DHT22;15243;50.726;7.080;2023-05-18T02:38:40;5.10;99.90
27900;DHT22;15243;50.726;7.080;2023-05-18T02:41:10;5.00;99.90
27900;DHT22;15243;50.726;7.080;2023-05-18T02:43:37;4.90;99.90
27900;DHT22;15243;50.726;7.080;2023-05-18T02:46:05;4.80;99.90
27900;DHT22;15243;50.726;7.080;2023-05-18T02:48:31;4.80;99.90
27900;DHT22;15243;50.726;7.080;2023-05-18T02:50:59;4.80;99.90
27900;DHT22;15243;50.726;7.080;2023-05-18T02:53:26;4.80;99.90
27900;DHT22;15243;50.726;7.080;2023-05-18T02:55:54;4.80;99.90
27900;DHT22;15243;50.726;7.080;2023-05-18T02:58:24;4.80;99.90
27900;DHT22;15243;50.726;7.080;2023-05-18T03:00:52;4.80;99.90
27900;DHT22;15243;50.726;7.080;2023-05-18T03:03:21;4.70;99.90
27900;DHT22;15243;50.726;7.080;2023-05-18T03:05:50;4.70;99.90
27900;DHT22;15243;50.726;7.080;2023-05-18T03:08:20;4.60;99.90
27900;DHT22;15243;50.726;7.080;2023-05-18T03:10:48;4.60;99.90
27900;DHT22;15243;50.726;7.080;2023-05-18T03:13:16;4.50;99.90
27900;DHT22;15243;50.726;7.080;2023-05-18T03:15:42;4.50;99.90
27900;DHT22;15243;50.726;7.080;2023-05-18T03:18:13;4.50;99.90
27900;DHT22;15243;50.726;7.080;2023-05-18T03:20:40;4.50;99.90
27900;DHT22;15243;50.726;7.080;2023-05-18T03:23:07;4.50;99.90
27900;DHT22;15243;50.726;7.080;2023-05-18T03:25:34;4.50;99.90
27900;DHT22;15243;50.726;7.080;2023-05-18T03:28:03;4.40;99.90
27900;DHT22;15243;50.726;7.080;2023-05-18T03:30:31;4.40;99.90
27900;DHT22;15243;50.726;7.080;2023-05-18T03:33:00;4.40;99.90
27900;DHT22;15243;50.726;7.080;2023-05-18T03:35:27;4.40;99.90
27900;DHT22;15243;50.726;7.080;2023-05-18T03:37:55;4.30;99.90
27900;DHT22;15243;50.726;7.080;2023-05-18T03:40:23;4.30;99.90
27900;DHT22;15243;50.726;7.080;2023-05-18T03:42:50;4.30;99.90
27900;DHT22;15243;50.726;7.080;2023-05-18T03:45:17;4.30;99.90
27900;DHT22;15243;50.726;7.080;2023-05-18T03:47:44;4.30;99.90
27900;DHT22;15243;50.726;7.080;2023-05-18T03:50:12;4.30;99.90
27900;DHT22;15243;50.726;7.080;2023-05-18T03:52:39;4.30;99.90
27900;DHT22;15243;50.726;7.080;2023-05-18T03:55:07;4.30;99.90
27900;DHT22;15243;50.726;7.080;2023-05-18T03:57:34;4.30;99.90
27900;DHT22;15243;50.726;7.080;2023-05-18T04:00:04;4.30;99.90
27900;DHT22;15243;50.726;7.080;2023-05-18T04:02:34;4.30;99.90
27900;DHT22;15243;50.726;7.080;2023-05-18T04:05:02;4.20;99.90
27900;DHT22;15243;50.726;7.080;2023-05-18T04:07:29;4.20;99.90
27900;DHT22;15243;50.726;7.080;2023-05-18T04:09:56;4.20;99.90
27900;DHT22;15243;50.726;7.080;2023-05-18T04:12:23;4.20;99.90
27900;DHT22;15243;50.726;7.080;2023-05-18T04:14:50;4.30;99.90
27900;DHT22;15243;50.726;7.080;2023-05-18T04:17:20;4.30;99.90
27900;DHT22;15243;50.726;7.080;2023-05-18T04:19:49;4.30;99.90
27900;DHT22;15243;50.726;7.080;2023-05-18T04:22:16;4.30;99.90
27900;DHT22;15243;50.726;7.080;2023-05-18T04:24:44;4.30;99.90
27900;DHT22;15243;50.726;7.080;2023-05-18T04:27:14;4.30;99.90
27900;DHT22;15243;50.726;7.080;2023-05-18T04:29:41;4.40;99.90
27900;DHT22;15243;50.726;7.080;2023-05-18T04:32:09;4.50;99.90
27900;DHT22;15243;50.726;7.080;2023-05-18T04:34:37;4.50;99.90
27900;DHT22;15243;50.726;7.080;2023-05-18T04:37:04;4.50;99.90
27900;DHT22;15243;50.726;7.080;2023-05-18T04:39:32;4.60;99.90
27900;DHT22;15243;50.726;7.080;2023-05-18T04:42:00;4.70;99.90
27900;DHT22;15243;50.726;7.080;2023-05-18T04:44:28;4.70;99.90
27900;DHT22;15243;50.726;7.080;2023-05-18T04:46:55;4.80;99.90
27900;DHT22;15243;50.726;7.080;2023-05-18T04:49:22;5.00;99.90
27900;DHT22;15243;50.726;7.080;2023-05-18T04:51:49;5.00;99.90
27900;DHT22;15243;50.726;7.080;2023-05-18T04:54:22;5.20;99.90
27900;DHT22;15243;50.726;7.080;2023-05-18T04:56:51;5.20;99.90
27900;DHT22;15243;50.726;7.080;2023-05-18T04:59:18;5.20;99.90
27900;DHT22;15243;50.726;7.080;2023-05-18T05:01:45;5.30;99.90
27900;DHT22;15243;50.726;7.080;2023-05-18T05:04:13;5.30;99.90
27900;DHT22;15243;50.726;7.080;2023-05-18T05:06:40;5.40;99.90
27900;DHT22;15243;50.726;7.080;2023-05-18T05:09:06;5.40;99.90
27900;DHT22;15243;50.726;7.080;2023-05-18T05:11:33;5.50;99.90
27900;DHT22;15243;50.726;7.080;2023-05-18T05:14:01;5.50;99.90
27900;DHT22;15243;50.726;7.080;2023-05-18T05:16:28;5.60;99.90
27900;DHT22;15243;50.726;7.080;2023-05-18T05:18:55;5.60;99.90
27900;DHT22;15243;50.726;7.080;2023-05-18T05:21:24;5.60;99.90
27900;DHT22;15243;50.726;7.080;2023-05-18T05:23:51;5.60;99.90
27900;DHT22;15243;50.726;7.080;2023-05-18T05:26:19;5.70;99.90
27900;DHT22;15243;50.726;7.080;2023-05-18T05:28:47;5.80;99.90
27900;DHT22;15243;50.726;7.080;2023-05-18T05:31:14;5.90;99.90
27900;DHT22;15243;50.726;7.080;2023-05-18T05:33:41;6.10;99.90
27900;DHT22;15243;50.726;7.080;2023-05-18T05:36:08;6.20;99.90
27900;DHT22;15243;50.726;7.080;2023-05-18T05:38:35;6.20;99.90
27900;DHT22;15243;50.726;7.080;2023-05-18T05:41:02;6.20;99.90
27900;DHT22;15243;50.726;7.080;2023-05-18T05:43:29;6.40;99.90
27900;DHT22;15243;50.726;7.080;2023-05-18T05:45:56;6.50;99.90
27900;DHT22;15243;50.726;7.080;2023-05-18T05:48:23;6.70;99.90
27900;DHT22;15243;50.726;7.080;2023-05-18T05:50:50;6.80;99.90
27900;DHT22;15243;50.726;7.080;2023-05-18T05:53:17;6.90;99.90
27900;DHT22;15243;50.726;7.080;2023-05-18T05:55:45;7.10;99.90
27900;DHT22;15243;50.726;7.080;2023-05-18T05:58:12;7.40;99.90
27900;DHT22;15243;50.726;7.080;2023-05-18T06:00:39;7.50;99.90
27900;DHT22;15243;50.726;7.080;2023-05-18T06:03:06;7.60;99.90
27900;DHT22;15243;50.726;7.080;2023-05-18T06:05:34;7.60;99.90
27900;DHT22;15243;50.726;7.080;2023-05-18T06:08:01;7.80;99.90
27900;DHT22;15243;50.726;7.080;2023-05-18T06:10:28;7.80;99.90
27900;DHT22;15243;50.726;7.080;2023-05-18T06:12:56;7.70;99.90
27900;DHT22;15243;50.726;7.080;2023-05-18T06:15:24;8.00;99.90
27900;DHT22;15243;50.726;7.080;2023-05-18T06:17:51;8.20;99.90
27900;DHT22;15243;50.726;7.080;2023-05-18T06:20:18;8.30;99.90
27900;DHT22;15243;50.726;7.080;2023-05-18T06:22:45;8.20;99.90
27900;DHT22;15243;50.726;7.080;2023-05-18T06:25:12;8.20;99.90
27900;DHT22;15243;50.726;7.080;2023-05-18T06:27:39;8.20;99.90
27900;DHT22;15243;50.726;7.080;2023-05-18T06:30:08;8.30;99.90
27900;DHT22;15243;50.726;7.080;2023-05-18T06:32:36;8.40;99.90
27900;DHT22;15243;50.726;7.080;2023-05-18T06:35:05;8.50;94.00
27900;DHT22;15243;50.726;7.080;2023-05-18T06:37:32;8.50;98.50
27900;DHT22;15243;50.726;7.080;2023-05-18T06:39:59;8.50;97.30
27900;DHT22;15243;50.726;7.080;2023-05-18T06:42:26;8.80;96.20
27900;DHT22;15243;50.726;7.080;2023-05-18T06:44:53;8.80;77.00
27900;DHT22;15243;50.726;7.080;2023-05-18T06:47:20;9.00;71.80
27900;DHT22;15243;50.726;7.080;2023-05-18T06:49:47;8.90;85.70
27900;DHT22;15243;50.726;7.080;2023-05-18T06:52:14;8.80;90.60
27900;DHT22;15243;50.726;7.080;2023-05-18T06:54:41;9.00;77.80
27900;DHT22;15243;50.726;7.080;2023-05-18T06:57:08;9.10;72.40
27900;DHT22;15243;50.726;7.080;2023-05-18T06:59:34;9.30;57.90
27900;DHT22;15243;50.726;7.080;2023-05-18T07:02:02;9.40;52.70
27900;DHT22;15243;50.726;7.080;2023-05-18T07:04:30;9.20;67.70
27900;DHT22;15243;50.726;7.080;2023-05-18T07:06:57;9.30;43.10
27900;DHT22;15243;50.726;7.080;2023-05-18T07:09:24;9.30;45.50
27900;DHT22;15243;50.726;7.080;2023-05-18T07:11:51;9.60;40.70
27900;DHT22;15243;50.726;7.080;2023-05-18T07:14:18;9.40;59.00
27900;DHT22;15243;50.726;7.080;2023-05-18T07:16:45;9.40;58.80
27900;DHT22;15243;50.726;7.080;2023-05-18T07:19:13;9.30;31.30
27900;DHT22;15243;50.726;7.080;2023-05-18T07:21:41;9.60;55.90
27900;DHT22;15243;50.726;7.080;2023-05-18T07:24:08;10.00;46.50
27900;DHT22;15243;50.726;7.080;2023-05-18T07:26:48;10.20;1.00
27900;DHT22;15243;50.726;7.080;2023-05-18T07:29:14;10.30;5.90
27900;DHT22;15243;50.726;7.080;2023-05-18T07:31:42;10.50;1.00
27900;DHT22;15243;50.726;7.080;2023-05-18T07:34:09;10.40;1.00
27900;DHT22;15243;50.726;7.080;2023-05-18T07:36:35;10.40;1.00
27900;DHT22;15243;50.726;7.080;2023-05-18T07:39:02;10.60;1.00
27900;DHT22;15243;50.726;7.080;2023-05-18T07:41:29;10.80;1.00
27900;DHT22;15243;50.726;7.080;2023-05-18T07:43:59;10.80;1.00
27900;DHT22;15243;50.726;7.080;2023-05-18T07:46:26;10.90;1.00
27900;DHT22;15243;50.726;7.080;2023-05-18T07:48:53;10.90;1.00
27900;DHT22;15243;50.726;7.080;2023-05-18T07:53:56;11.00;1.00
27900;DHT22;15243;50.726;7.080;2023-05-18T07:56:23;11.10;1.00
27900;DHT22;15243;50.726;7.080;2023-05-18T07:58:51;11.00;1.00
27900;DHT22;15243;50.726;7.080;2023-05-18T08:01:18;10.80;1.00
27900;DHT22;15243;50.726;7.080;2023-05-18T08:03:46;10.90;1.00
27900;DHT22;15243;50.726;7.080;2023-05-18T08:06:13;11.20;1.00
27900;DHT22;15243;50.726;7.080;2023-05-18T08:08:40;11.50;1.00
27900;DHT22;15243;50.726;7.080;2023-05-18T08:11:07;11.90;1.00
27900;DHT22;15243;50.726;7.080;2023-05-18T08:13:34;11.80;1.00
27900;DHT22;15243;50.726;7.080;2023-05-18T08:16:00;12.20;1.00
27900;DHT22;15243;50.726;7.080;2023-05-18T08:18:37;12.40;1.00
27900;DHT22;15243;50.726;7.080;2023-05-18T08:21:04;12.50;1.00
27900;DHT22;15243;50.726;7.080;2023-05-18T08:23:35;12.40;1.00
27900;DHT22;15243;50.726;7.080;2023-05-18T08:26:02;12.40;1.00
27900;DHT22;15243;50.726;7.080;2023-05-18T08:28:29;12.40;1.00
27900;DHT22;15243;50.726;7.080;2023-05-18T08:30:57;12.30;1.00
27900;DHT22;15243;50.726;7.080;2023-05-18T08:33:24;12.30;1.00
27900;DHT22;15243;50.726;7.080;2023-05-18T08:35:52;12.30;1.00
27900;DHT22;15243;50.726;7.080;2023-05-18T08:38:19;12.30;1.00
27900;DHT22;15243;50.726;7.080;2023-05-18T08:41:04;12.30;1.00
27900;DHT22;15243;50.726;7.080;2023-05-18T08:43:37;12.60;1.00
27900;DHT22;15243;50.726;7.080;2023-05-18T08:46:18;12.80;1.00
27900;DHT22;15243;50.726;7.080;2023-05-18T08:48:46;12.80;1.00
27900;DHT22;15243;50.726;7.080;2023-05-18T08:51:18;12.80;1.00
27900;DHT22;15243;50.726;7.080;2023-05-18T08:53:50;12.80;1.00
27900;DHT22;15243;50.726;7.080;2023-05-18T08:56:22;12.80;1.00
27900;DHT22;15243;50.726;7.080;2023-05-18T08:58:54;13.00;1.00
27900;DHT22;15243;50.726;7.080;2023-05-18T09:01:25;13.00;1.00
27900;DHT22;15243;50.726;7.080;2023-05-18T09:03:57;12.80;1.00
27900;DHT22;15243;50.726;7.080;2023-05-18T09:06:25;12.90;1.00
27900;DHT22;15243;50.726;7.080;2023-05-18T09:08:55;12.70;1.00
27900;DHT22;15243;50.726;7.080;2023-05-18T09:11:25;12.90;1.00
27900;DHT22;15243;50.726;7.080;2023-05-18T09:13:53;13.20;1.00
27900;DHT22;15243;50.726;7.080;2023-05-18T09:16:21;13.60;1.00
27900;DHT22;15243;50.726;7.080;2023-05-18T09:18:47;13.60;1.00
27900;DHT22;15243;50.726;7.080;2023-05-18T09:21:15;13.70;1.00
27900;DHT22;15243;50.726;7.080;2023-05-18T09:23:43;13.80;1.00
27900;DHT22;15243;50.726;7.080;2023-05-18T09:26:10;13.70;1.00
27900;DHT22;15243;50.726;7.080;2023-05-18T09:28:41;13.90;1.00
27900;DHT22;15243;50.726;7.080;2023-05-18T09:31:09;14.20;1.00
27900;DHT22;15243;50.726;7.080;2023-05-18T09:33:42;14.30;1.00
27900;DHT22;15243;50.726;7.080;2023-05-18T09:36:10;14.60;1.00
27900;DHT22;15243;50.726;7.080;2023-05-18T09:38:45;14.50;1.00
27900;DHT22;15243;50.726;7.080;2023-05-18T09:41:15;14.50;99.90
27900;DHT22;15243;50.726;7.080;2023-05-18T09:43:49;14.60;1.00
27900;DHT22;15243;50.726;7.080;2023-05-18T09:46:19;15.00;1.00
27900;DHT22;15243;50.726;7.080;2023-05-18T09:48:52;15.20;99.90
27900;DHT22;15243;50.726;7.080;2023-05-18T09:51:20;15.10;99.90
27900;DHT22;15243;50.726;7.080;2023-05-18T09:53:56;15.10;99.90
27900;DHT22;15243;50.726;7.080;2023-05-18T09:56:24;14.90;99.90
27900;DHT22;15243;50.726;7.080;2023-05-18T09:58:52;14.70;99.90
27900;DHT22;15243;50.726;7.080;2023-05-18T10:01:20;14.50;99.90
27900;DHT22;15243;50.726;7.080;2023-05-18T10:03:47;15.10;99.90
27900;DHT22;15243;50.726;7.080;2023-05-18T10:06:15;15.20;99.90
27900;DHT22;15243;50.726;7.080;2023-05-18T10:08:47;15.40;99.90
27900;DHT22;15243;50.726;7.080;2023-05-18T10:11:17;15.50;99.90
27900;DHT22;15243;50.726;7.080;2023-05-18T10:13:53;15.70;99.90
27900;DHT22;15243;50.726;7.080;2023-05-18T10:16:22;15.80;99.90
27900;DHT22;15243;50.726;7.080;2023-05-18T10:18:51;15.30;99.90
27900;DHT22;15243;50.726;7.080;2023-05-18T10:21:20;15.40;99.90
27900;DHT22;15243;50.726;7.080;2023-05-18T10:23:50;15.50;99.90
27900;DHT22;15243;50.726;7.080;2023-05-18T10:26:18;15.70;99.90
27900;DHT22;15243;50.726;7.080;2023-05-18T10:28:49;15.70;99.90
27900;DHT22;15243;50.726;7.080;2023-05-18T10:31:18;15.60;99.90
27900;DHT22;15243;50.726;7.080;2023-05-18T10:33:49;15.80;99.90
27900;DHT22;15243;50.726;7.080;2023-05-18T10:36:16;15.70;99.90
27900;DHT22;15243;50.726;7.080;2023-05-18T10:38:45;15.90;99.90
27900;DHT22;15243;50.726;7.080;2023-05-18T10:41:12;16.10;99.90
27900;DHT22;15243;50.726;7.080;2023-05-18T10:43:40;15.70;99.90
27900;DHT22;15243;50.726;7.080;2023-05-18T10:46:08;16.00;99.90
27900;DHT22;15243;50.726;7.080;2023-05-18T10:48:38;16.20;99.90
27900;DHT22;15243;50.726;7.080;2023-05-18T10:51:06;16.60;99.90
27900;DHT22;15243;50.726;7.080;2023-05-18T10:53:34;16.50;99.90
27900;DHT22;15243;50.726;7.080;2023-05-18T10:56:02;16.10;99.90
27900;DHT22;15243;50.726;7.080;2023-05-18T10:58:30;16.40;99.90
27900;DHT22;15243;50.726;7.080;2023-05-18T11:01:00;16.30;99.90
27900;DHT22;15243;50.726;7.080;2023-05-18T11:03:27;16.80;99.90
27900;DHT22;15243;50.726;7.080;2023-05-18T11:06:09;16.60;99.90
27900;DHT22;15243;50.726;7.080;2023-05-18T11:08:46;16.30;28.70
27900;DHT22;15243;50.726;7.080;2023-05-18T11:11:13;16.40;99.90
27900;DHT22;15243;50.726;7.080;2023-05-18T11:13:47;16.70;99.90
27900;DHT22;15243;50.726;7.080;2023-05-18T11:16:16;16.80;99.90
27900;DHT22;15243;50.726;7.080;2023-05-18T11:18:44;17.00;82.50
27900;DHT22;15243;50.726;7.080;2023-05-18T11:21:18;17.40;99.90
27900;DHT22;15243;50.726;7.080;2023-05-18T11:26:39;17.70;42.70
27900;DHT22;15243;50.726;7.080;2023-05-18T11:29:20;17.90;99.90
27900;DHT22;15243;50.726;7.080;2023-05-18T11:31:50;18.30;99.90
27900;DHT22;15243;50.726;7.080;2023-05-18T11:34:43;18.40;11.20
27900;DHT22;15243;50.726;7.080;2023-05-18T11:40:00;17.30;1.00
27900;DHT22;15243;50.726;7.080;2023-05-18T11:42:34;17.40;1.00
27900;DHT22;15243;50.726;7.080;2023-05-18T11:45:09;17.80;1.00
27900;DHT22;15243;50.726;7.080;2023-05-18T11:47:37;18.20;29.00
27900;DHT22;15243;50.726;7.080;2023-05-18T11:50:08;18.20;1.00
27900;DHT22;15243;50.726;7.080;2023-05-18T11:52:47;18.20;99.90
27900;DHT22;15243;50.726;7.080;2023-05-18T11:55:17;18.60;1.00
27900;DHT22;15243;50.726;7.080;2023-05-18T11:57:48;18.60;99.90
27900;DHT22;15243;50.726;7.080;2023-05-18T12:00:16;18.30;99.90
27900;DHT22;15243;50.726;7.080;2023-05-18T12:02:45;17.90;99.90
27900;DHT22;15243;50.726;7.080;2023-05-18T12:05:13;18.10;99.90
27900;DHT22;15243;50.726;7.080;2023-05-18T12:07:40;18.40;99.90
27900;DHT22;15243;50.726;7.080;2023-05-18T12:10:09;18.10;99.90
27900;DHT22;15243;50.726;7.080;2023-05-18T12:12:37;18.10;53.40
27900;DHT22;15243;50.726;7.080;2023-05-18T12:15:07;17.40;99.90
27900;DHT22;15243;50.726;7.080;2023-05-18T12:17:42;17.80;99.90
27900;DHT22;15243;50.726;7.080;2023-05-18T12:20:17;18.30;99.90
27900;DHT22;15243;50.726;7.080;2023-05-18T12:22:47;18.30;99.90
27900;DHT22;15243;50.726;7.080;2023-05-18T12:25:20;18.10;99.90
27900;DHT22;15243;50.726;7.080;2023-05-18T12:27:48;18.30;99.90
27900;DHT22;15243;50.726;7.080;2023-05-18T12:30:19;18.70;99.90
27900;DHT22;15243;50.726;7.080;2023-05-18T12:32:48;18.90;99.90
27900;DHT22;15243;50.726;7.080;2023-05-18T12:35:16;19.10;99.90
27900;DHT22;15243;50.726;7.080;2023-05-18T12:37:44;19.50;99.90
27900;DHT22;15243;50.726;7.080;2023-05-18T12:40:19;19.50;99.90
27900;DHT22;15243;50.726;7.080;2023-05-18T12:45:26;19.10;99.90
27900;DHT22;15243;50.726;7.080;2023-05-18T12:47:54;19.00;99.90
27900;DHT22;15243;50.726;7.080;2023-05-18T12:50:23;19.30;99.90
27900;DHT22;15243;50.726;7.080;2023-05-18T12:52:53;19.80;99.90
27900;DHT22;15243;50.726;7.080;2023-05-18T12:55:21;19.40;99.90
27900;DHT22;15243;50.726;7.080;2023-05-18T12:58:12;19.60;99.90
27900;DHT22;15243;50.726;7.080;2023-05-18T13:00:46;19.70;99.90
27900;DHT22;15243;50.726;7.080;2023-05-18T13:03:14;20.20;99.90
27900;DHT22;15243;50.726;7.080;2023-05-18T13:05:43;20.80;99.90
27900;DHT22;15243;50.726;7.080;2023-05-18T13:08:15;20.30;99.90
27900;DHT22;15243;50.726;7.080;2023-05-18T13:10:48;20.70;99.90
27900;DHT22;15243;50.726;7.080;2023-05-18T13:13:31;21.50;99.90
27900;DHT22;15243;50.726;7.080;2023-05-18T13:15:58;21.90;99.90
27900;DHT22;15243;50.726;7.080;2023-05-18T13:18:26;21.60;99.90
27900;DHT22;15243;50.726;7.080;2023-05-18T13:20:55;23.10;99.90
27900;DHT22;15243;50.726;7.080;2023-05-18T13:23:26;22.70;99.90
27900;DHT22;15243;50.726;7.080;2023-05-18T13:25:53;22.60;99.90
27900;DHT22;15243;50.726;7.080;2023-05-18T13:28:23;22.40;99.90
27900;DHT22;15243;50.726;7.080;2023-05-18T13:30:50;22.20;99.90
27900;DHT22;15243;50.726;7.080;2023-05-18T13:33:18;21.90;99.90
27900;DHT22;15243;50.726;7.080;2023-05-18T13:35:45;22.10;99.90
27900;DHT22;15243;50.726;7.080;2023-05-18T13:38:13;22.20;99.90
27900;DHT22;15243;50.726;7.080;2023-05-18T13:40:40;23.90;99.90
27900;DHT22;15243;50.726;7.080;2023-05-18T13:43:07;23.70;99.90
27900;DHT22;15243;50.726;7.080;2023-05-18T13:45:38;23.30;99.90
27900;DHT22;15243;50.726;7.080;2023-05-18T13:48:05;24.20;99.90
27900;DHT22;15243;50.726;7.080;2023-05-18T13:50:36;24.20;99.90
27900;DHT22;15243;50.726;7.080;2023-05-18T13:53:03;25.40;99.90
27900;DHT22;15243;50.726;7.080;2023-05-18T13:55:30;26.00;99.90
27900;DHT22;15243;50.726;7.080;2023-05-18T13:57:59;25.80;99.90
27900;DHT22;15243;50.726;7.080;2023-05-18T14:00:26;24.90;99.90
27900;DHT22;15243;50.726;7.080;2023-05-18T14:02:54;24.40;99.90
27900;DHT22;15243;50.726;7.080;2023-05-18T14:05:22;25.80;99.90
27900;DHT22;15243;50.726;7.080;2023-05-18T14:07:50;26.70;99.90
27900;DHT22;15243;50.726;7.080;2023-05-18T14:10:18;26.50;99.90
27900;DHT22;15243;50.726;7.080;2023-05-18T14:12:45;26.20;99.90
27900;DHT22;15243;50.726;7.080;2023-05-18T14:15:12;26.20;99.90
27900;DHT22;15243;50.726;7.080;2023-05-18T14:17:41;25.70;99.90
27900;DHT22;15243;50.726;7.080;2023-05-18T14:20:09;25.20;99.90
27900;DHT22;15243;50.726;7.080;2023-05-18T14:22:37;25.00;99.90
27900;DHT22;15243;50.726;7.080;2023-05-18T14:25:04;25.60;99.90
27900;DHT22;15243;50.726;7.080;2023-05-18T14:27:31;26.50;99.90
27900;DHT22;15243;50.726;7.080;2023-05-18T14:29:58;25.90;99.90
27900;DHT22;15243;50.726;7.080;2023-05-18T14:32:25;25.40;99.90
27900;DHT22;15243;50.726;7.080;2023-05-18T14:34:52;24.80;99.90
27900;DHT22;15243;50.726;7.080;2023-05-18T14:37:23;24.50;99.90
27900;DHT22;15243;50.726;7.080;2023-05-18T14:39:50;25.80;99.90
27900;DHT22;15243;50.726;7.080;2023-05-18T14:42:17;25.90;99.90
27900;DHT22;15243;50.726;7.080;2023-05-18T14:44:44;27.20;99.90
27900;DHT22;15243;50.726;7.080;2023-05-18T14:47:11;27.90;99.90
27900;DHT22;15243;50.726;7.080;2023-05-18T14:49:38;27.20;99.90
27900;DHT22;15243;50.726;7.080;2023-05-18T14:52:05;28.90;99.90
27900;DHT22;15243;50.726;7.080;2023-05-18T14:54:32;27.90;99.90
27900;DHT22;15243;50.726;7.080;2023-05-18T14:56:59;28.30;99.90
27900;DHT22;15243;50.726;7.080;2023-05-18T14:59:26;29.00;99.90
27900;DHT22;15243;50.726;7.080;2023-05-18T15:01:53;29.00;99.90
27900;DHT22;15243;50.726;7.080;2023-05-18T15:04:20;29.60;99.90
27900;DHT22;15243;50.726;7.080;2023-05-18T15:06:48;30.00;99.90
27900;DHT22;15243;50.726;7.080;2023-05-18T15:09:15;30.30;99.90
27900;DHT22;15243;50.726;7.080;2023-05-18T15:11:42;29.70;99.90
27900;DHT22;15243;50.726;7.080;2023-05-18T15:14:09;30.20;99.90
27900;DHT22;15243;50.726;7.080;2023-05-18T15:16:36;30.40;99.90
27900;DHT22;15243;50.726;7.080;2023-05-18T15:19:04;28.90;99.90
27900;DHT22;15243;50.726;7.080;2023-05-18T15:21:31;28.00;99.90
27900;DHT22;15243;50.726;7.080;2023-05-18T15:23:58;27.30;99.90
27900;DHT22;15243;50.726;7.080;2023-05-18T15:26:26;27.10;99.90
27900;DHT22;15243;50.726;7.080;2023-05-18T15:28:53;28.10;99.90
27900;DHT22;15243;50.726;7.080;2023-05-18T15:31:20;27.60;99.90
27900;DHT22;15243;50.726;7.080;2023-05-18T15:33:47;26.80;99.90
27900;DHT22;15243;50.726;7.080;2023-05-18T15:36:14;25.80;99.90
27900;DHT22;15243;50.726;7.080;2023-05-18T15:38:41;25.90;99.90
27900;DHT22;15243;50.726;7.080;2023-05-18T15:41:08;25.60;99.90
27900;DHT22;15243;50.726;7.080;2023-05-18T15:43:35;25.30;99.90
27900;DHT22;15243;50.726;7.080;2023-05-18T15:46:03;24.80;99.90
27900;DHT22;15243;50.726;7.080;2023-05-18T15:48:30;24.20;99.90
27900;DHT22;15243;50.726;7.080;2023-05-18T15:50:58;23.30;99.90
27900;DHT22;15243;50.726;7.080;2023-05-18T15:53:24;22.50;99.90
27900;DHT22;15243;50.726;7.080;2023-05-18T15:55:51;22.10;99.90
27900;DHT22;15243;50.726;7.080;2023-05-18T15:58:24;21.50;99.90
27900;DHT22;15243;50.726;7.080;2023-05-18T16:00:52;21.50;99.90
27900;DHT22;15243;50.726;7.080;2023-05-18T16:03:19;21.60;99.90
27900;DHT22;15243;50.726;7.080;2023-05-18T16:05:47;21.00;99.90
27900;DHT22;15243;50.726;7.080;2023-05-18T16:08:13;21.10;99.90
27900;DHT22;15243;50.726;7.080;2023-05-18T16:10:40;20.60;99.90
27900;DHT22;15243;50.726;7.080;2023-05-18T16:13:08;21.40;99.90